Time;durP1;ratioP1;P1;durP2;ratioP2;P2;SDS_P1;SDS_P2;PMS_P1;PMS_P2;Temp;Humidity;BMP_temperature;BMP_pressure;BME280_temperature;BME280_humidity;BME280_pressure;Samples;Min_cycle;Max_cycle;Signal;HPM_P1;HPM_P2
2022/03/14 00:00:22;;;;;;;11.73;8.93;;;;;;;11.29;43.24;100451.75;5035603;28;20490;-53
2022/03/14 00:02:51;;;;;;;10.45;8.68;;;;;;;11.29;43.46;100450.94;5035109;28;20053;-50
2022/03/14 00:05:18;;;;;;;11.70;9.63;;;;;;;11.31;43.46;100460.63;5046748;28;20057;-51
2022/03/14 00:07:46;;;;;;;11.40;9.13;;;;;;;11.34;43.15;100462.78;5034797;28;20045;-53
2022/03/14 00:10:15;;;;;;;14.13;10.23;;;;;;;11.35;42.89;100449.66;5034986;28;20466;-51
2022/03/14 00:12:43;;;;;;;;;;;;;;;11.33;42.74;100457.50;5040316;28;20045;-53
2022/03/14 00:15:11;;;;;;;12.23;9.32;;;;;;;11.34;43.74;100460.00;5054441;28;20274;-54
2022/03/14 00:17:40;;;;;;;13.52;10.00;;;;;;;11.35;43.45;100461.63;5054642;28;20101;-51
2022/03/14 00:20:12;;;;;;;13.95;10.68;;;;;;;11.39;43.89;100450.66;5051140;28;20056;-54
2022/03/14 00:22:40;;;;;;;12.05;10.05;;;;;;;11.41;43.73;100453.94;5054566;28;20053;-51
2022/03/14 00:25:10;;;;;;;13.15;10.10;;;;;;;11.36;43.66;100457.72;5054457;28;20437;-52
2022/03/14 00:27:38;;;;;;;12.40;9.88;;;;;;;11.31;43.91;100454.22;5054295;28;20056;-51
2022/03/14 00:30:07;;;;;;;13.43;10.68;;;;;;;11.37;43.08;100464.91;5053777;28;20064;-54
2022/03/14 00:32:35;;;;;;;14.02;10.50;;;;;;;11.35;43.16;100463.59;5034365;28;20049;-51
2022/03/14 00:35:04;;;;;;;14.27;10.90;;;;;;;11.41;43.65;100464.28;5046114;28;20044;-53
2022/03/14 00:37:33;;;;;;;12.30;9.98;;;;;;;11.45;43.83;100466.13;5054235;28;20056;-56
2022/03/14 00:40:00;;;;;;;11.85;9.85;;;;;;;11.45;43.49;100474.47;5054282;28;20056;-56
2022/03/14 00:42:28;;;;;;;14.52;10.52;;;;;;;11.49;43.44;100469.91;5047579;28;20049;-54
2022/03/14 00:44:55;;;;;;;14.07;10.38;;;;;;;11.52;43.49;100469.25;5045180;28;20057;-50
2022/03/14 00:47:22;;;;;;;13.25;9.88;;;;;;;11.55;43.52;100473.38;5054083;28;20060;-51
2022/03/14 00:49:50;;;;;;;11.88;10.13;;;;;;;11.58;44.49;100472.72;5047927;28;20045;-51
2022/03/14 00:52:17;;;;;;;14.00;9.52;;;;;;;11.58;44.57;100469.94;5053859;28;20053;-50
2022/03/14 00:54:46;;;;;;;12.40;9.27;;;;;;;11.61;45.00;100474.06;5053771;28;20064;-55
2022/03/14 00:57:15;;;;;;;11.33;9.80;;;;;;;11.63;44.43;100468.97;5033458;28;20417;-53
2022/03/14 00:59:42;;;;;;;11.60;9.80;;;;;;;11.57;44.65;100469.13;5035531;28;20483;-52
2022/03/14 01:02:10;;;;;;;14.13;10.15;;;;;;;11.59;44.83;100466.03;5046743;28;20434;-54
2022/03/14 01:04:38;;;;;;;17.35;10.35;;;;;;;11.60;44.89;100470.44;5048000;28;20421;-54
2022/03/14 01:07:05;;;;;;;12.50;10.02;;;;;;;11.57;44.67;100479.47;5053401;28;20049;-55
2022/03/14 01:09:33;;;;;;;11.65;9.57;;;;;;;11.58;44.66;100475.53;5053093;28;20064;-54
2022/03/14 01:12:02;;;;;;;14.02;10.13;;;;;;;11.58;43.99;100481.09;5053650;28;20060;-55
2022/03/14 01:14:30;;;;;;;17.67;10.32;;;;;;;11.59;43.89;100482.78;5053543;28;20059;-52
2022/03/14 01:16:57;;;;;;;12.40;10.13;;;;;;;11.60;44.42;100489.97;5048343;28;20515;-55
2022/03/14 01:19:24;;;;;;;13.02;10.40;;;;;;;11.57;43.91;100497.03;5053334;28;20529;-50
2022/03/14 01:21:52;;;;;;;12.85;10.95;;;;;;;11.57;43.45;100507.38;5046190;28;20053;-50
2022/03/14 01:24:19;;;;;;;12.95;10.23;;;;;;;11.58;43.71;100522.94;5033651;28;20057;-54
2022/03/14 01:26:47;;;;;;;10.40;9.30;;;;;;;11.63;44.29;100522.81;5033487;28;20068;-52
2022/03/14 01:29:18;;;;;;;11.25;9.18;;;;;;;11.69;44.85;100526.28;5046909;28;20060;-53
2022/03/14 01:31:45;;;;;;;12.32;9.77;;;;;;;11.72;45.03;100537.63;5053347;28;20393;-55
2022/03/14 01:34:14;;;;;;;12.65;9.50;;;;;;;11.74;45.41;100540.13;5053654;28;20056;-50
2022/03/14 01:36:41;;;;;;;12.35;9.45;;;;;;;11.75;44.68;100542.56;5052059;28;20048;-52
2022/03/14 01:39:09;;;;;;;12.55;9.65;;;;;;;11.76;44.61;100541.44;5053646;28;20466;-55
2022/03/14 01:41:36;;;;;;;11.07;9.43;;;;;;;11.77;44.53;100545.84;5046121;28;20460;-55
2022/03/14 01:44:04;;;;;;;11.55;9.68;;;;;;;11.81;45.42;100559.19;5033157;28;20064;-52
2022/03/14 01:46:34;;;;;;;11.77;9.15;;;;;;;11.81;45.07;100556.41;5032934;28;20054;-55
2022/03/14 01:49:01;;;;;;;12.82;10.85;;;;;;;11.79;46.50;100549.16;5046906;28;20053;-51
2022/03/14 01:51:29;;;;;;;13.32;10.40;;;;;;;11.76;46.63;100554.56;5051946;28;20069;-52
2022/03/14 01:53:56;;;;;;;13.18;10.40;;;;;;;11.73;47.37;100558.81;5050938;28;20048;-51
2022/03/14 01:56:25;;;;;;;14.05;11.40;;;;;;;11.66;48.04;100561.25;5041070;28;20045;-53
2022/03/14 01:58:54;;;;;;;14.85;10.95;;;;;;;11.61;48.15;100574.50;5052473;28;20049;-54
2022/03/14 02:01:22;;;;;;;14.75;12.27;;;;;;;11.60;49.30;100578.44;5052639;28;20057;-52
2022/03/14 02:03:51;;;;;;;14.25;11.27;;;;;;;11.54;49.12;100572.16;5047329;28;20052;-53
2022/03/14 02:06:18;;;;;;;12.38;10.00;;;;;;;11.55;50.23;100576.59;5052518;28;20060;-50
2022/03/14 02:08:48;;;;;;;13.13;10.90;;;;;;;11.52;52.13;100574.44;5052662;28;20052;-53
2022/03/14 02:11:16;;;;;;;13.88;11.38;;;;;;;11.51;52.55;100579.19;5052660;28;20489;-51
2022/03/14 02:13:43;;;;;;;14.95;11.63;;;;;;;11.49;51.90;100567.53;5034235;28;20383;-53
2022/03/14 02:16:11;;;;;;;16.30;13.25;;;;;;;11.45;53.71;100562.91;5039533;28;20387;-53
2022/03/14 02:18:38;;;;;;;15.98;12.55;;;;;;;11.43;54.72;100571.59;5046657;28;20052;-51
2022/03/14 02:21:08;;;;;;;17.60;12.80;;;;;;;11.42;54.49;100583.06;5051901;28;20049;-55
2022/03/14 02:23:35;;;;;;;13.65;12.02;;;;;;;11.37;53.85;100590.41;5038252;28;20056;-53
2022/03/14 02:26:03;;;;;;;17.08;13.35;;;;;;;11.32;55.56;100590.56;5040243;28;20489;-51
2022/03/14 02:28:31;;;;;;;16.13;13.40;;;;;;;11.29;55.81;100585.59;5052720;28;20435;-56
2022/03/14 02:30:58;;;;;;;17.65;13.90;;;;;;;11.25;55.96;100590.16;5047253;28;20044;-50
2022/03/14 02:33:25;;;;;;;16.15;12.90;;;;;;;11.23;56.77;100592.44;5052303;28;20057;-52
2022/03/14 02:35:53;;;;;;;18.67;13.25;;;;;;;11.15;57.13;100596.00;5051750;28;20056;-54
2022/03/14 02:38:21;;;;;;;17.50;13.15;;;;;;;11.15;57.72;100596.00;5050553;28;20068;-53
2022/03/14 02:40:50;;;;;;;15.80;14.00;;;;;;;11.10;58.32;100596.91;5037184;28;20042;-52
2022/03/14 02:43:22;;;;;;;16.35;13.13;;;;;;;11.11;57.86;100603.34;5052035;28;20049;-52
2022/03/14 02:45:51;;;;;;;16.67;13.25;;;;;;;11.12;58.46;100613.34;5043656;28;20049;-53
2022/03/14 02:48:19;;;;;;;19.80;14.93;;;;;;;11.09;59.23;100608.41;5032451;28;20057;-52
2022/03/14 02:50:49;;;;;;;16.30;12.82;;;;;;;11.11;58.99;100620.06;5040752;28;20049;-54
2022/03/14 02:53:16;;;;;;;17.92;13.27;;;;;;;11.08;59.08;100634.63;5048454;28;20046;-54
2022/03/14 02:55:45;;;;;;;16.13;13.35;;;;;;;11.03;59.28;100632.78;5041164;28;20520;-52
2022/03/14 02:58:13;;;;;;;17.97;14.67;;;;;;;11.01;60.10;100635.06;5052215;28;20401;-52
2022/03/14 03:00:40;;;;;;;18.15;14.57;;;;;;;11.01;60.44;100631.44;5041671;28;20466;-51
2022/03/14 03:03:10;;;;;;;15.00;12.57;;;;;;;11.01;60.86;100639.81;5034905;28;20068;-52
2022/03/14 03:05:43;;;;;;;17.83;14.00;;;;;;;10.94;62.15;100645.78;5050713;28;20056;-52
2022/03/14 03:08:10;;;;;;;17.15;13.57;;;;;;;10.92;62.29;100657.28;5050894;28;20053;-51
2022/03/14 03:10:38;;;;;;;16.70;13.57;;;;;;;10.91;62.73;100658.41;5052037;28;20478;-53
2022/03/14 03:13:06;;;;;;;19.17;14.50;;;;;;;10.94;62.82;100656.94;5044723;28;20056;-52
2022/03/14 03:15:37;;;;;;;17.77;14.05;;;;;;;10.87;62.59;100657.38;5045582;28;20517;-50
2022/03/14 03:18:05;;;;;;;19.20;15.15;;;;;;;10.82;63.94;100665.03;5046831;28;20379;-50
2022/03/14 03:20:32;;;;;;;17.75;14.07;;;;;;;10.82;63.84;100665.84;5040527;28;20053;-54
2022/03/14 03:22:59;;;;;;;19.27;15.10;;;;;;;10.85;64.51;100670.78;5031806;28;20049;-53
2022/03/14 03:25:27;;;;;;;17.42;14.07;;;;;;;10.80;63.81;100665.34;5041153;28;20111;-50
2022/03/14 03:27:55;;;;;;;18.95;15.07;;;;;;;10.76;63.69;100683.81;5049963;28;20059;-51
2022/03/14 03:30:23;;;;;;;17.80;14.65;;;;;;;10.73;63.99;100684.41;5051196;28;20053;-52
2022/03/14 03:32:51;;;;;;;20.02;16.30;;;;;;;10.68;64.11;100682.56;5037793;28;20057;-52
2022/03/14 03:35:19;;;;;;;17.75;15.10;;;;;;;10.65;64.13;100686.00;5039807;28;20425;-51
2022/03/14 03:37:47;;;;;;;18.55;15.02;;;;;;;10.63;64.17;100693.81;5050572;28;20049;-50
2022/03/14 03:40:14;;;;;;;19.80;15.25;;;;;;;10.63;64.69;100702.19;5041340;28;20045;-50
2022/03/14 03:42:42;;;;;;;19.33;15.25;;;;;;;10.64;64.43;100697.44;5032916;28;20049;-51
2022/03/14 03:45:10;;;;;;;20.60;15.77;;;;;;;10.54;67.13;100709.59;5031637;28;20057;-55
2022/03/14 03:47:39;;;;;;;21.38;14.93;;;;;;;10.06;73.62;100710.72;5031758;28;20065;-53
2022/03/14 03:50:09;;;;;;;23.60;17.43;;;;;;;9.87;77.55;100705.22;5035114;28;20056;-52
2022/03/14 03:52:37;;;;;;;30.10;20.70;;;;;;;9.70;83.66;100719.69;5051002;28;20053;-54
2022/03/14 03:55:05;;;;;;;37.58;20.25;;;;;;;9.50;86.35;100725.56;5051591;28;20045;-54
2022/03/14 03:57:34;;;;;;;54.55;26.27;;;;;;;9.52;86.43;100726.06;5037390;28;20418;-52
2022/03/14 04:00:02;;;;;;;56.20;26.17;;;;;;;9.54;87.19;100721.84;5031593;28;20053;-53
2022/03/14 04:02:35;;;;;;;52.42;29.10;;;;;;;9.38;87.95;100720.44;5031269;28;20046;-54
2022/03/14 04:05:05;;;;;;;52.72;27.45;;;;;;;9.39;87.82;100729.63;5049318;28;20076;-55
2022/03/14 04:07:34;;;;;;;78.50;31.25;;;;;;;9.45;89.45;100731.16;5049393;28;20060;-53
2022/03/14 04:10:02;;;;;;;49.28;25.85;;;;;;;9.31;89.73;100734.72;5051017;28;20064;-50
2022/03/14 04:12:29;;;;;;;46.90;25.52;;;;;;;9.15;93.61;100741.59;5040823;28;20509;-52
2022/03/14 04:15:00;;;;;;;51.13;26.67;;;;;;;9.11;95.29;100740.53;5031312;28;20061;-55
2022/03/14 04:17:28;;;;;;;66.20;29.10;;;;;;;9.12;96.59;100747.75;5031559;28;20064;-54
2022/03/14 04:19:57;;;;;;;48.35;27.60;;;;;;;8.97;98.70;100759.09;5050940;28;20398;-52
2022/03/14 04:22:25;;;;;;;63.20;28.67;;;;;;;8.91;98.91;100753.56;5053220;28;20056;-50
2022/03/14 04:24:53;;;;;;;48.78;27.15;;;;;;;8.84;100.00;100755.03;5054128;28;20049;-51
2022/03/14 04:27:20;;;;;;;68.95;30.98;;;;;;;8.74;100.00;100767.13;5054709;28;20053;-53
2022/03/14 04:29:48;;;;;;;55.30;25.38;;;;;;;8.82;100.00;100755.34;5046871;28;20045;-54
2022/03/14 04:32:15;;;;;;;54.60;27.85;;;;;;;8.82;100.00;100762.84;5052322;28;20501;-52
2022/03/14 04:34:42;;;;;;;47.78;26.05;;;;;;;8.63;100.00;100769.19;5043391;28;20401;-53
2022/03/14 04:37:13;;;;;;;90.82;31.52;;;;;;;8.74;100.00;100778.22;5053465;28;20056;-54
2022/03/14 04:39:42;;;;;;;50.63;25.08;;;;;;;8.64;100.00;100776.38;5054306;28;20052;-51
2022/03/14 04:42:10;;;;;;;55.22;26.05;;;;;;;8.64;100.00;100784.69;5043696;28;20052;-53
2022/03/14 04:44:38;;;;;;;44.25;19.98;;;;;;;8.56;100.00;100790.06;5034508;28;20414;-56
2022/03/14 04:47:05;;;;;;;91.82;27.42;;;;;;;8.53;100.00;100786.75;5033904;28;20431;-56
2022/03/14 04:49:33;;;;;;;65.80;24.92;;;;;;;8.49;100.00;100796.78;5037351;28;20049;-53
2022/03/14 04:52:00;;;;;;;47.35;23.38;;;;;;;8.58;100.00;100796.16;5053577;28;20053;-55
2022/03/14 04:54:27;;;;;;;42.45;18.70;;;;;;;8.51;100.00;100797.31;5037330;28;20068;-52
2022/03/14 04:56:57;;;;;;;34.50;17.65;;;;;;;8.37;100.00;100801.88;5033718;28;20060;-58
2022/03/14 04:59:24;;;;;;;40.67;17.98;;;;;;;8.45;100.00;100801.28;5048583;28;20056;-58
2022/03/14 05:01:51;;;;;;;33.33;16.25;;;;;;;8.20;100.00;100809.81;5038874;28;20053;-59
2022/03/14 05:04:19;;;;;;;26.65;14.13;;;;;;;8.18;100.00;100815.63;5046560;28;20501;-58
2022/03/14 05:06:46;;;;;;;24.55;11.75;;;;;;;8.19;100.00;100810.91;5053032;28;20052;-58
2022/03/14 05:09:14;;;;;;;28.63;13.02;;;;;;;8.24;100.00;100800.59;5053144;28;20049;-58
2022/03/14 05:11:41;;;;;;;26.48;12.60;;;;;;;8.23;100.00;100800.88;5037131;28;20053;-54
2022/03/14 05:14:10;;;;;;;30.30;12.52;;;;;;;8.28;100.00;100803.63;5037584;28;20061;-55
2022/03/14 05:16:38;;;;;;;22.35;10.95;;;;;;;8.24;100.00;100808.09;5034072;28;20521;-56
2022/03/14 05:19:06;;;;;;;29.35;12.82;;;;;;;8.32;100.00;100802.75;5036567;28;20049;-56
2022/03/14 05:21:34;;;;;;;21.05;10.88;;;;;;;8.41;100.00;100810.47;5049344;28;20045;-57
2022/03/14 05:24:01;;;;;;;35.85;14.23;;;;;;;8.49;100.00;100816.22;5052651;28;20045;-58
2022/03/14 05:26:28;;;;;;;17.55;11.13;;;;;;;8.43;100.00;100814.63;5042149;28;20045;-54
2022/03/14 05:28:57;;;;;;;27.98;12.63;;;;;;;8.46;100.00;100810.41;5040513;28;20049;-52
2022/03/14 05:31:26;;;;;;;47.10;15.93;;;;;;;8.46;100.00;100814.06;5053097;28;20049;-52
2022/03/14 05:33:53;;;;;;;26.30;13.25;;;;;;;8.57;100.00;100819.47;5033437;28;20501;-56
2022/03/14 05:36:21;;;;;;;30.38;12.65;;;;;;;8.53;100.00;100824.81;5051178;28;20059;-57
2022/03/14 05:38:48;;;;;;;25.58;11.30;;;;;;;8.43;100.00;100828.50;5052869;28;20053;-58
2022/03/14 05:41:16;;;;;;;15.38;8.85;;;;;;;8.46;100.00;100835.41;5036068;28;20409;-58
2022/03/14 05:43:43;;;;;;;26.33;11.60;;;;;;;8.47;100.00;100832.34;5033366;28;20128;-53
2022/03/14 05:46:11;;;;;;;22.02;10.52;;;;;;;8.60;100.00;100832.78;5034593;28;20049;-52
2022/03/14 05:48:39;;;;;;;14.05;8.23;;;;;;;8.58;100.00;100843.38;5034311;28;20049;-55
2022/03/14 05:51:07;;;;;;;16.05;7.93;;;;;;;8.53;100.00;100845.06;5044562;28;20078;-58
2022/03/14 05:53:35;;;;;;;11.95;6.75;;;;;;;8.40;99.97;100854.03;5036440;28;20056;-57
2022/03/14 05:56:03;;;;;;;11.50;7.07;;;;;;;8.33;99.33;100856.31;5040499;28;20065;-57
2022/03/14 05:58:31;;;;;;;13.68;7.85;;;;;;;8.37;98.46;100862.13;5041496;28;20055;-57
2022/03/14 06:00:58;;;;;;;13.35;6.82;;;;;;;8.39;98.39;100862.66;5038824;28;20049;-51
2022/03/14 06:03:25;;;;;;;13.63;7.28;;;;;;;8.43;99.09;100867.34;5052845;28;20053;-54
2022/03/14 06:05:54;;;;;;;9.05;6.03;;;;;;;8.35;97.58;100870.72;5049517;28;20382;-53
2022/03/14 06:08:21;;;;;;;11.13;5.97;;;;;;;8.37;96.49;100874.03;5047836;28;20060;-53
2022/03/14 06:10:49;;;;;;;8.57;5.93;;;;;;;8.36;95.43;100877.94;5033139;28;20049;-57
2022/03/14 06:13:17;;;;;;;13.85;7.28;;;;;;;8.44;94.54;100884.84;5033544;28;20505;-55
2022/03/14 06:15:47;;;;;;;10.70;6.15;;;;;;;8.47;93.97;100885.09;5032999;28;20052;-57
2022/03/14 06:18:15;;;;;;;11.13;6.57;;;;;;;8.39;93.97;100885.69;5044650;28;20056;-52
2022/03/14 06:20:42;;;;;;;11.20;6.15;;;;;;;8.52;94.34;100885.06;5049790;28;20156;-55
2022/03/14 06:23:10;;;;;;;12.90;7.00;;;;;;;8.59;94.86;100887.50;5052406;28;20060;-52
2022/03/14 06:25:38;;;;;;;7.75;5.35;;;;;;;8.59;93.93;100889.44;5049247;28;20064;-52
2022/03/14 06:28:05;;;;;;;9.48;6.32;;;;;;;8.60;93.87;100894.69;5035961;28;20056;-54
2022/03/14 06:30:32;;;;;;;16.02;7.57;;;;;;;8.64;93.53;100897.72;5049587;28;20072;-55
2022/03/14 06:32:59;;;;;;;13.35;7.32;;;;;;;8.78;94.02;100901.50;5052350;28;20060;-52
2022/03/14 06:35:27;;;;;;;11.18;6.93;;;;;;;8.78;93.97;100909.84;5050878;28;20057;-51
2022/03/14 06:37:54;;;;;;;12.38;7.55;;;;;;;8.84;93.02;100907.81;5039075;28;20053;-56
2022/03/14 06:40:26;;;;;;;13.23;8.02;;;;;;;8.91;93.00;100911.09;5032159;28;20053;-56
2022/03/14 06:42:53;;;;;;;10.05;6.85;;;;;;;8.99;92.53;100917.94;5036312;28;20057;-56
2022/03/14 06:45:22;;;;;;;9.50;6.35;;;;;;;9.03;92.47;100919.03;5042830;28;20041;-56
2022/03/14 06:47:49;;;;;;;14.98;8.68;;;;;;;9.07;92.47;100918.16;5051601;28;20053;-56
2022/03/14 06:50:17;;;;;;;11.23;7.20;;;;;;;9.06;92.75;100921.22;5051351;28;20053;-56
2022/03/14 06:52:44;;;;;;;11.00;7.60;;;;;;;9.07;92.81;100920.94;5051552;28;20064;-55
2022/03/14 06:55:12;;;;;;;19.02;10.40;;;;;;;9.19;93.60;100925.25;5051230;28;20068;-56
2022/03/14 06:57:41;;;;;;;13.10;8.75;;;;;;;9.32;92.04;100919.84;5051743;28;20049;-53
2022/03/14 07:00:09;;;;;;;13.07;8.70;;;;;;;9.41;92.64;100925.59;5051514;28;20151;-55
2022/03/14 07:02:39;;;;;;;11.52;8.18;;;;;;;9.32;91.67;100936.53;5051526;28;20064;-52
2022/03/14 07:05:13;;;;;;;11.80;8.77;;;;;;;9.47;92.01;100927.19;5051701;28;20049;-57
2022/03/14 07:07:41;;;;;;;15.73;9.80;;;;;;;9.56;91.64;100930.13;5051569;28;20053;-52
2022/03/14 07:10:10;;;;;;;21.00;11.07;;;;;;;9.67;91.31;100930.84;5051723;28;20061;-54
2022/03/14 07:12:44;;;;;;;11.98;9.52;;;;;;;9.68;90.08;100943.59;5051206;28;20075;-53
2022/03/14 07:15:13;;;;;;;15.50;10.43;;;;;;;9.74;90.10;100943.28;5051404;28;20476;-52
2022/03/14 07:17:42;;;;;;;17.13;11.00;;;;;;;9.72;89.76;100944.66;5051640;28;20052;-52
2022/03/14 07:20:13;;;;;;;20.65;11.90;;;;;;;9.74;89.23;100947.97;5051002;28;20053;-51
2022/03/14 07:22:51;;;;;;;14.20;10.38;;;;;;;9.74;88.96;100959.97;5051650;28;20504;-54
2022/03/14 07:25:25;;;;;;;21.17;13.10;;;;;;;9.80;89.28;100952.34;5051357;28;20055;-53
2022/03/14 07:27:53;;;;;;;18.85;12.50;;;;;;;9.85;88.86;100957.03;5051790;28;20064;-51
2022/03/14 07:30:22;;;;;;;17.35;12.40;;;;;;;9.85;89.57;100962.59;5036023;28;20057;-52
2022/03/14 07:32:50;;;;;;;22.35;13.63;;;;;;;9.85;89.91;100960.66;5031799;28;20057;-54
2022/03/14 07:35:17;;;;;;;20.65;13.23;;;;;;;9.85;88.64;100962.59;5031322;28;20056;-56
2022/03/14 07:37:45;;;;;;;26.20;13.80;;;;;;;9.91;89.44;100961.41;5031695;28;20050;-51
2022/03/14 07:40:14;;;;;;;13.68;11.23;;;;;;;9.88;88.29;100970.34;5031274;28;20054;-51
2022/03/14 07:42:43;;;;;;;14.60;11.90;;;;;;;9.88;87.05;100970.34;5031340;28;20518;-55
2022/03/14 07:45:11;;;;;;;15.73;11.75;;;;;;;9.83;85.82;100985.16;5031618;28;20050;-53
2022/03/14 07:47:40;;;;;;;15.07;11.35;;;;;;;9.79;85.95;100986.06;5031623;28;20467;-54
2022/03/14 07:50:09;;;;;;;17.50;13.15;;;;;;;9.80;86.90;101002.44;5031262;28;20087;-56
2022/03/14 07:52:38;;;;;;;33.03;20.85;;;;;;;9.85;85.82;100984.84;5031397;28;20394;-55
2022/03/14 07:55:07;;;;;;;21.90;14.60;;;;;;;9.81;85.69;100995.75;5031069;28;20049;-53
2022/03/14 07:57:36;;;;;;;33.22;21.48;;;;;;;9.89;84.38;100995.13;5035127;28;20049;-53
2022/03/14 08:00:08;;;;;;;20.80;15.48;;;;;;;9.98;84.89;101003.63;5034868;28;20414;-54
2022/03/14 08:02:35;;;;;;;27.85;18.27;;;;;;;10.06;85.02;101000.19;5034727;28;20410;-54
2022/03/14 08:05:04;;;;;;;20.63;15.70;;;;;;;10.17;85.22;101006.44;5053183;28;20370;-54
2022/03/14 08:07:32;;;;;;;13.48;11.13;;;;;;;10.10;82.24;100998.47;5054918;28;20060;-54
2022/03/14 08:10:00;;;;;;;19.25;12.63;;;;;;;10.19;83.36;101003.38;5054364;28;20059;-52
2022/03/14 08:12:27;;;;;;;17.60;14.10;;;;;;;10.28;82.71;101012.69;5054779;28;20497;-53
2022/03/14 08:14:55;;;;;;;16.25;13.35;;;;;;;10.32;82.75;101020.19;5054478;28;20511;-51
2022/03/14 08:17:22;;;;;;;17.42;13.80;;;;;;;10.31;82.66;101015.75;5054491;28;20060;-54
2022/03/14 08:19:49;;;;;;;19.40;13.60;;;;;;;10.39;83.74;101027.34;5054434;28;20053;-51
2022/03/14 08:22:18;;;;;;;19.52;12.88;;;;;;;10.37;82.91;101027.63;5054382;28;20053;-54
2022/03/14 08:24:46;;;;;;;15.75;12.05;;;;;;;10.44;82.61;101030.06;5054313;28;20427;-55
2022/03/14 08:27:13;;;;;;;15.82;11.68;;;;;;;10.43;82.07;101033.97;5054089;28;20053;-51
2022/03/14 08:29:40;;;;;;;21.42;15.15;;;;;;;10.52;82.96;101046.94;5054486;28;20421;-52
2022/03/14 08:32:08;;;;;;;14.05;12.13;;;;;;;10.59;83.35;101048.53;5053906;28;20080;-52
2022/03/14 08:34:37;;;;;;;17.83;13.77;;;;;;;10.57;82.63;101051.59;5054598;28;20053;-55
2022/03/14 08:37:05;;;;;;;15.65;11.60;;;;;;;10.59;81.41;101042.94;5054288;28;20049;-53
2022/03/14 08:39:33;;;;;;;16.85;12.40;;;;;;;10.68;82.61;101055.88;5054589;28;20049;-53
2022/03/14 08:42:01;;;;;;;13.70;11.30;;;;;;;10.70;79.89;101063.94;5053843;28;20516;-52
2022/03/14 08:44:28;;;;;;;18.30;11.23;;;;;;;10.68;80.32;101061.47;5054603;28;20057;-53
2022/03/14 08:46:56;;;;;;;14.73;11.93;;;;;;;10.73;81.22;101057.75;5054064;28;20049;-54
2022/03/14 08:49:24;;;;;;;17.50;11.27;;;;;;;10.82;80.88;101066.31;5053997;28;20052;-54
2022/03/14 08:51:51;;;;;;;15.70;11.88;;;;;;;10.95;81.56;101065.53;5054460;28;20064;-55
2022/03/14 08:54:19;;;;;;;16.35;12.70;;;;;;;11.07;80.63;101067.88;5053874;28;20390;-54
2022/03/14 08:56:47;;;;;;;16.80;11.25;;;;;;;11.04;78.42;101074.03;5053767;28;20060;-53
2022/03/14 08:59:15;;;;;;;15.52;11.85;;;;;;;11.02;78.70;101076.28;5054010;28;20057;-53
2022/03/14 09:01:43;;;;;;;13.80;10.52;;;;;;;11.10;78.21;101072.81;5054206;28;20060;-57
2022/03/14 09:04:12;;;;;;;14.50;10.77;;;;;;;11.21;78.40;101076.28;5054167;28;20420;-53
2022/03/14 09:06:42;;;;;;;18.67;13.27;;;;;;;11.28;79.43;101069.19;5053782;28;20499;-51
2022/03/14 09:09:09;;;;;;;16.73;10.77;;;;;;;11.44;77.68;101086.47;5054020;28;20060;-55
2022/03/14 09:11:37;;;;;;;14.57;11.48;;;;;;;11.47;78.10;101085.88;5054091;28;20052;-55
2022/03/14 09:14:06;;;;;;;16.50;11.23;;;;;;;11.46;77.77;101089.78;5053693;28;20049;-54
2022/03/14 09:16:35;;;;;;;15.40;13.10;;;;;;;11.41;77.60;101095.47;5053650;28;20409;-55
2022/03/14 09:19:02;;;;;;;14.13;12.63;;;;;;;11.45;77.68;101095.69;5053280;28;20135;-55
2022/03/14 09:21:33;;;;;;;13.07;9.25;;;;;;;11.57;76.78;101098.84;5053910;28;20056;-53
2022/03/14 09:24:01;;;;;;;14.95;9.52;;;;;;;11.60;76.35;101103.78;5053866;28;20414;-52
2022/03/14 09:26:30;;;;;;;14.40;9.70;;;;;;;11.64;76.38;101109.59;5053718;28;20052;-55
2022/03/14 09:28:58;;;;;;;13.45;9.63;;;;;;;11.67;75.81;101109.78;5053771;28;20057;-53
2022/03/14 09:31:26;;;;;;;13.95;9.73;;;;;;;11.64;74.79;101107.63;5053487;28;20060;-55
2022/03/14 09:33:54;;;;;;;20.23;12.75;;;;;;;11.75;77.88;101100.72;5053100;28;20049;-55
2022/03/14 09:36:21;;;;;;;11.05;9.32;;;;;;;11.89;76.73;101114.72;5053275;28;20486;-54
2022/03/14 09:38:48;;;;;;;12.77;9.27;;;;;;;11.97;75.71;101107.63;5053715;28;20060;-55
2022/03/14 09:41:19;;;;;;;13.25;9.52;;;;;;;12.04;75.82;101108.03;5052981;28;20053;-54
2022/03/14 09:43:51;;;;;;;12.27;8.57;;;;;;;12.31;74.11;101121.19;5053320;28;20405;-55
2022/03/14 09:46:20;;;;;;;8.32;7.10;;;;;;;12.35;71.62;101115.81;5053028;28;20049;-54
2022/03/14 09:48:52;;;;;;;9.13;7.40;;;;;;;12.59;70.86;101123.97;5053584;28;20056;-53
2022/03/14 09:51:23;;;;;;;11.45;6.78;;;;;;;12.58;69.60;101120.34;5052604;28;20067;-55
2022/03/14 09:53:51;;;;;;;11.75;7.72;;;;;;;12.79;70.33;101131.09;5053022;28;20413;-55
2022/03/14 09:56:19;;;;;;;9.52;7.03;;;;;;;12.84;69.53;101138.53;5052183;28;20056;-50
2022/03/14 09:58:47;;;;;;;10.52;8.10;;;;;;;12.96;69.74;101130.44;5052862;28;20049;-51
2022/03/14 10:01:14;;;;;;;10.77;7.00;;;;;;;12.98;67.41;101131.75;5052439;28;20057;-51
2022/03/14 10:03:45;;;;;;;8.93;6.88;;;;;;;12.91;68.64;101141.72;5052778;28;20067;-53
2022/03/14 10:06:14;;;;;;;10.85;6.60;;;;;;;13.04;69.17;101140.88;5052495;28;20162;-52
2022/03/14 10:08:42;;;;;;;8.43;6.25;;;;;;;12.73;67.23;101158.31;5052690;28;20056;-51
2022/03/14 10:11:09;;;;;;;8.52;6.63;;;;;;;12.81;68.63;101153.97;5052179;28;20052;-51
2022/03/14 10:13:37;;;;;;;10.38;7.03;;;;;;;12.87;70.83;101158.31;5052311;28;20056;-51
2022/03/14 10:16:05;;;;;;;8.73;6.63;;;;;;;12.83;70.24;101153.63;5052182;28;20060;-52
2022/03/14 10:18:37;;;;;;;9.00;6.65;;;;;;;12.84;69.20;101166.50;5051917;28;20473;-53
2022/03/14 10:21:06;;;;;;;11.25;6.38;;;;;;;12.87;67.20;101175.09;5052099;28;20049;-50
2022/03/14 10:23:37;;;;;;;;;;;;;;;12.86;66.55;101170.63;5052941;28;20056;-53
2022/03/14 10:26:06;;;;;;;6.93;6.13;;;;;;;12.67;66.66;101169.91;5051949;28;20023;-50
2022/03/14 10:28:38;;;;;;;8.50;5.50;;;;;;;12.64;65.17;101187.28;5052188;28;20401;-50
2022/03/14 10:31:06;;;;;;;6.65;5.22;;;;;;;12.68;64.84;101182.75;5051951;28;20061;-51
2022/03/14 10:33:34;;;;;;;8.90;6.00;;;;;;;12.61;66.64;101187.94;5052386;28;20402;-51
2022/03/14 10:36:02;;;;;;;7.38;6.07;;;;;;;12.62;66.80;101184.00;5051881;28;20397;-54
2022/03/14 10:38:29;;;;;;;9.88;6.47;;;;;;;12.73;68.24;101196.63;5051450;28;20048;-51
2022/03/14 10:40:58;;;;;;;8.23;6.50;;;;;;;12.74;67.66;101199.09;5052250;28;20478;-50
2022/03/14 10:43:27;;;;;;;9.65;5.63;;;;;;;12.61;65.65;101213.09;5051711;28;20053;-55
2022/03/14 10:45:54;;;;;;;7.60;6.30;;;;;;;12.51;66.81;101220.50;5051264;28;20075;-52
2022/03/14 10:48:36;;;;;;;9.05;6.13;;;;;;;12.52;67.33;101224.16;5051354;28;20057;-54
2022/03/14 10:51:04;;;;;;;8.25;6.25;;;;;;;12.50;68.52;101224.47;5051086;28;20608;-50
2022/03/14 10:53:34;;;;;;;10.32;5.05;;;;;;;12.47;65.97;101227.03;5051327;28;20052;-52
2022/03/14 10:56:04;;;;;;;8.40;5.38;;;;;;;12.46;67.53;101233.78;5051194;28;20053;-50
2022/03/14 10:58:33;;;;;;;;;;;;;;;12.32;66.35;101239.34;5052592;28;20059;-53
2022/03/14 11:01:02;;;;;;;8.02;5.15;;;;;;;12.38;67.37;101235.31;5051533;28;19931;-51
2022/03/14 11:03:31;;;;;;;6.72;4.93;;;;;;;12.25;65.43;101236.94;5051748;28;20053;-53
2022/03/14 11:06:01;;;;;;;7.47;5.25;;;;;;;12.27;68.11;101239.44;5051776;28;20055;-52
2022/03/14 11:08:33;;;;;;;9.15;4.97;;;;;;;12.36;66.91;101240.38;5051411;28;20061;-53
2022/03/14 11:11:04;;;;;;;8.07;5.35;;;;;;;12.41;68.36;101240.28;5051453;28;20057;-53
2022/03/14 11:13:32;;;;;;;6.57;4.85;;;;;;;12.38;66.73;101235.31;5051570;28;20057;-51
2022/03/14 11:16:00;;;;;;;8.43;5.68;;;;;;;12.41;67.77;101239.44;5051557;28;20057;-50
2022/03/14 11:18:30;;;;;;;8.60;5.65;;;;;;;12.59;68.03;101238.53;5051474;28;20068;-53
2022/03/14 11:21:00;;;;;;;8.57;5.40;;;;;;;12.69;66.19;101237.53;5051725;28;20053;-50